Time;durP1;ratioP1;P1;durP2;ratioP2;P2;SDS_P1;SDS_P2;PMS_P1;PMS_P2;Temp;Humidity;BMP_temperature;BMP_pressure;BME280_temperature;BME280_humidity;BME280_pressure;Samples;Min_cycle;Max_cycle;Signal;HPM_P1;HPM_P2
2023/07/01 00:01:19;;;;;;;;;;;20.30;57.90;;;;;;5071744;28;19999;-28
2023/07/01 00:03:44;;;;;;;;;;;20.30;57.90;;;;;;5071679;28;19908;-31
2023/07/01 00:06:10;;;;;;;;;;;20.30;57.70;;;;;;5071837;28;20010;-31
2023/07/01 00:08:35;;;;;;;;;;;20.30;57.80;;;;;;5071719;28;19916;-29
2023/07/01 00:11:01;;;;;;;;;;;20.30;57.70;;;;;;5071726;28;19932;-29
2023/07/01 00:13:30;;;;;;;;;;;20.30;57.80;;;;;;5071556;28;19914;-27
2023/07/01 00:15:56;;;;;;;;;;;20.30;57.70;;;;;;5071398;28;19912;-31
2023/07/01 00:18:22;;;;;;;;;;;20.20;57.50;;;;;;5071610;28;19958;-27
2023/07/01 00:20:47;;;;;;;;;;;20.20;57.50;;;;;;5071640;28;20325;-28
2023/07/01 00:23:13;;;;;;;;;;;20.20;57.40;;;;;;5071589;28;19935;-28
2023/07/01 00:25:38;;;;;;;;;;;20.20;57.30;;;;;;5071665;28;19908;-29
2023/07/01 00:28:04;;;;;;;;;;;20.20;57.20;;;;;;5071339;28;20261;-29
2023/07/01 00:30:30;;;;;;;;;;;20.20;57.70;;;;;;5071621;28;19909;-28
2023/07/01 00:32:55;;;;;;;;;;;20.20;57.00;;;;;;5071524;28;20409;-28
2023/07/01 00:35:21;;;;;;;;;;;20.20;56.80;;;;;;5075319;28;19931;-28
2023/07/01 00:37:46;;;;;;;;;;;20.20;56.80;;;;;;5075207;28;19923;-30
2023/07/01 00:40:12;;;;;;;;;;;20.20;56.70;;;;;;5075324;28;19909;-29
2023/07/01 00:42:37;;;;;;;;;;;20.20;56.70;;;;;;5075320;28;19961;-27
2023/07/01 00:45:03;;;;;;;;;;;20.20;56.70;;;;;;5057248;28;19999;-28
2023/07/01 00:47:29;;;;;;;;;;;20.20;56.70;;;;;;5057194;28;19909;-29
2023/07/01 00:49:55;;;;;;;;;;;20.20;56.60;;;;;;5075175;28;19931;-28
2023/07/01 00:52:20;;;;;;;;;;;20.20;56.70;;;;;;5075260;28;20438;-28
2023/07/01 00:54:45;;;;;;;;;;;20.20;56.60;;;;;;5075179;28;19919;-27
2023/07/01 00:57:11;;;;;;;;;;;20.20;56.60;;;;;;5074896;28;19912;-29
2023/07/01 00:59:36;;;;;;;;;;;20.20;56.60;;;;;;5075087;28;19916;-27
2023/07/01 01:02:31;;;;;;;;;;;20.10;56.60;;;;;;5075159;28;19953;-27
2023/07/01 01:05:10;;;;;;;;;;;20.10;56.60;;;;;;5061531;28;19916;-28
2023/07/01 01:07:54;;;;;;;;;;;20.10;56.50;;;;;;5074898;28;19935;-33
2023/07/01 01:10:23;;;;;;;;;;;20.10;56.30;;;;;;5074684;28;20003;-28
2023/07/01 01:12:50;;;;;;;;;;;20.10;56.30;;;;;;5074628;28;19909;-31
2023/07/01 01:15:16;;;;;;;;;;;20.10;56.20;;;;;;5074984;28;19931;-27
2023/07/01 01:17:42;;;;;;;;;;;20.10;56.20;;;;;;5074991;28;20340;-26
2023/07/01 01:20:12;;;;;;;;;;;20.10;56.20;;;;;;5074642;28;20030;-33
2023/07/01 01:23:00;;;;;;;;;;;20.10;56.30;;;;;;5056506;28;19944;-32
2023/07/01 01:25:34;;;;;;;;;;;20.00;56.40;;;;;;5074572;28;19939;-36
2023/07/01 01:27:59;;;;;;;;;;;20.00;56.50;;;;;;5056299;28;19917;-30
2023/07/01 01:30:28;;;;;;;;;;;20.00;56.50;;;;;;5074538;28;20313;-32
2023/07/01 01:32:54;;;;;;;;;;;20.00;56.60;;;;;;5074434;28;20352;-31
2023/07/01 01:35:19;;;;;;;;;;;20.00;56.60;;;;;;5074527;28;19915;-35
2023/07/01 01:37:45;;;;;;;;;;;20.00;56.60;;;;;;5074288;28;20470;-33
2023/07/01 01:40:19;;;;;;;;;;;20.00;56.70;;;;;;5074148;28;20360;-34
2023/07/01 01:42:46;;;;;;;;;;;20.00;56.70;;;;;;5074337;28;19965;-30
2023/07/01 01:45:14;;;;;;;;;;;20.00;56.80;;;;;;5072959;28;19958;-31
2023/07/01 01:47:40;;;;;;;;;;;20.00;56.90;;;;;;5074046;28;20336;-28
2023/07/01 01:50:07;;;;;;;;;;;19.90;56.90;;;;;;5074179;28;20422;-33
2023/07/01 01:52:33;;;;;;;;;;;19.90;57.00;;;;;;5074362;28;19961;-28
2023/07/01 01:54:59;;;;;;;;;;;19.90;57.00;;;;;;5073933;28;19913;-30
2023/07/01 01:57:25;;;;;;;;;;;19.90;57.00;;;;;;5073743;28;19965;-28
2023/07/01 01:59:50;;;;;;;;;;;19.90;57.00;;;;;;5073950;28;19908;-28
2023/07/01 02:02:16;;;;;;;;;;;19.90;57.10;;;;;;5073898;28;19915;-30
2023/07/01 02:04:41;;;;;;;;;;;19.90;57.20;;;;;;5073880;28;20364;-28
2023/07/01 02:07:07;;;;;;;;;;;19.90;57.90;;;;;;5073795;28;19996;-28
2023/07/01 02:09:32;;;;;;;;;;;19.90;57.40;;;;;;5073766;28;19905;-29
2023/07/01 02:11:58;;;;;;;;;;;19.80;57.40;;;;;;5073584;28;19962;-29
2023/07/01 02:14:24;;;;;;;;;;;19.80;57.50;;;;;;5073677;28;19909;-29
2023/07/01 02:16:50;;;;;;;;;;;19.80;58.00;;;;;;5073247;28;19913;-32
2023/07/01 02:19:15;;;;;;;;;;;19.80;58.00;;;;;;5073388;28;19908;-28
2023/07/01 02:21:41;;;;;;;;;;;19.80;58.30;;;;;;5073488;28;19915;-28
2023/07/01 02:24:06;;;;;;;;;;;19.80;58.50;;;;;;5073360;28;19908;-28
2023/07/01 02:26:32;;;;;;;;;;;19.70;58.70;;;;;;5073354;28;19915;-27
2023/07/01 02:28:57;;;;;;;;;;;19.70;59.00;;;;;;5073087;28;19920;-27
2023/07/01 02:31:23;;;;;;;;;;;19.70;59.00;;;;;;5073279;28;20012;-27
2023/07/01 02:33:49;;;;;;;;;;;19.70;59.40;;;;;;5073186;28;19987;-28
2023/07/01 02:36:15;;;;;;;;;;;19.60;59.90;;;;;;5073116;28;19955;-29
2023/07/01 02:38:40;;;;;;;;;;;19.60;59.80;;;;;;5054942;28;19916;-30
2023/07/01 02:41:06;;;;;;;;;;;19.60;60.00;;;;;;5072986;28;20299;-28
2023/07/01 02:43:31;;;;;;;;;;;19.50;60.50;;;;;;5073023;28;19915;-28
2023/07/01 02:45:57;;;;;;;;;;;19.50;60.90;;;;;;5072926;28;19965;-29
2023/07/01 02:48:22;;;;;;;;;;;19.50;62.10;;;;;;5072924;28;19908;-28
2023/07/01 02:50:48;;;;;;;;;;;19.40;63.00;;;;;;5054804;28;20311;-31
2023/07/01 02:53:15;;;;;;;;;;;19.30;63.50;;;;;;5072832;28;19990;-30
2023/07/01 02:55:40;;;;;;;;;;;19.20;63.70;;;;;;5072637;28;19946;-33
2023/07/01 02:58:06;;;;;;;;;;;19.10;63.60;;;;;;5072462;28;19967;-33
2023/07/01 03:00:31;;;;;;;;;;;19.10;64.60;;;;;;5072656;28;19908;-30
2023/07/01 03:03:05;;;;;;;;;;;19.10;64.30;;;;;;5072546;28;20057;-32
2023/07/01 03:05:32;;;;;;;;;;;19.10;64.10;;;;;;5072547;28;19944;-32
2023/07/01 03:07:58;;;;;;;;;;;19.10;64.10;;;;;;5072547;28;20017;-30
2023/07/01 03:10:23;;;;;;;;;;;19.10;64.20;;;;;;5072512;28;20383;-30
2023/07/01 03:12:49;;;;;;;;;;;19.10;64.20;;;;;;5072443;28;20371;-29
2023/07/01 03:15:14;;;;;;;;;;;19.10;65.00;;;;;;5054645;28;19940;-31
2023/07/01 03:17:40;;;;;;;;;;;19.10;65.40;;;;;;5072203;28;19912;-33
2023/07/01 03:20:06;;;;;;;;;;;19.10;65.30;;;;;;5072272;28;20373;-30
2023/07/01 03:22:31;;;;;;;;;;;19.00;65.90;;;;;;5054233;28;19908;-31
2023/07/01 03:24:57;;;;;;;;;;;19.00;65.70;;;;;;5072231;28;20427;-32
2023/07/01 03:27:22;;;;;;;;;;;19.00;65.60;;;;;;5072570;28;19961;-32
2023/07/01 03:29:47;;;;;;;;;;;19.10;65.40;;;;;;5054239;28;20347;-29
2023/07/01 03:32:13;;;;;;;;;;;19.00;65.70;;;;;;5072173;28;19908;-33
2023/07/01 03:34:39;;;;;;;;;;;19.10;65.60;;;;;;5072141;28;20359;-34
2023/07/01 03:37:05;;;;;;;;;;;19.10;66.80;;;;;;5072121;28;19923;-35
2023/07/01 03:39:30;;;;;;;;;;;19.00;67.10;;;;;;5072092;28;20268;-31
2023/07/01 03:41:55;;;;;;;;;;;18.90;67.80;;;;;;5054097;28;19909;-32
2023/07/01 03:44:21;;;;;;;;;;;18.90;67.70;;;;;;5054047;28;20025;-29
2023/07/01 03:46:46;;;;;;;;;;;18.90;68.00;;;;;;5072099;28;19915;-32
2023/07/01 03:49:12;;;;;;;;;;;18.80;68.40;;;;;;5053866;28;20061;-32
2023/07/01 03:51:37;;;;;;;;;;;18.80;68.40;;;;;;5053951;28;19913;-30
2023/07/01 03:54:03;;;;;;;;;;;18.80;68.60;;;;;;5071914;28;19912;-30
2023/07/01 03:56:28;;;;;;;;;;;18.80;69.80;;;;;;5071837;28;20003;-33
2023/07/01 03:58:54;;;;;;;;;;;18.80;69.00;;;;;;5071893;28;20327;-32
2023/07/01 04:01:21;;;;;;;;;;;18.70;68.90;;;;;;5071913;28;19962;-30
2023/07/01 04:03:47;;;;;;;;;;;18.70;69.60;;;;;;5071741;28;19909;-31
2023/07/01 04:06:12;;;;;;;;;;;18.70;69.00;;;;;;5071653;28;20445;-30
2023/07/01 04:08:38;;;;;;;;;;;18.70;69.40;;;;;;5073176;28;20015;-30
2023/07/01 04:11:03;;;;;;;;;;;18.70;69.40;;;;;;5076003;28;19908;-34
2023/07/01 04:13:29;;;;;;;;;;;18.70;69.40;;;;;;5057853;28;19931;-30
2023/07/01 04:15:54;;;;;;;;;;;18.70;69.20;;;;;;5075773;28;19965;-41
2023/07/01 04:18:20;;;;;;;;;;;18.70;69.80;;;;;;5075759;28;19915;-30
2023/07/01 04:20:46;;;;;;;;;;;18.70;69.90;;;;;;5075669;28;19996;-29
2023/07/01 04:23:12;;;;;;;;;;;18.70;70.00;;;;;;5075617;28;19909;-31
2023/07/01 04:25:38;;;;;;;;;;;18.70;69.70;;;;;;5075783;28;20050;-38
2023/07/01 04:28:04;;;;;;;;;;;18.70;69.70;;;;;;5075483;28;19916;-31
2023/07/01 04:30:29;;;;;;;;;;;18.80;69.60;;;;;;5075773;28;19909;-29
2023/07/01 04:32:55;;;;;;;;;;;18.80;69.60;;;;;;5075530;28;19938;-35
2023/07/01 04:35:20;;;;;;;;;;;18.80;70.10;;;;;;5075531;28;19915;-29
2023/07/01 04:37:46;;;;;;;;;;;18.80;70.10;;;;;;5057439;28;19916;-32
2023/07/01 04:40:12;;;;;;;;;;;18.70;70.30;;;;;;5075473;28;19908;-32
2023/07/01 04:42:49;;;;;;;;;;;18.70;70.60;;;;;;5075294;28;19913;-33
2023/07/01 04:45:14;;;;;;;;;;;18.70;70.80;;;;;;5075350;28;19930;-32
2023/07/01 04:47:40;;;;;;;;;;;18.70;71.30;;;;;;5075627;28;19932;-33
2023/07/01 04:50:06;;;;;;;;;;;18.70;71.30;;;;;;5075283;28;19916;-29
2023/07/01 04:52:31;;;;;;;;;;;18.70;72.20;;;;;;5075495;28;20374;-33
2023/07/01 04:54:56;;;;;;;;;;;18.60;72.20;;;;;;5075150;28;19931;-33
2023/07/01 04:57:22;;;;;;;;;;;18.50;72.60;;;;;;5057067;28;20407;-30
2023/07/01 04:59:47;;;;;;;;;;;18.50;72.60;;;;;;5075151;28;19935;-32
2023/07/01 05:02:13;;;;;;;;;;;18.50;72.60;;;;;;5075047;28;19912;-34
2023/07/01 05:04:38;;;;;;;;;;;18.40;73.10;;;;;;5075126;28;20342;-33
2023/07/01 05:07:04;;;;;;;;;;;18.40;73.20;;;;;;5075000;28;19932;-31
2023/07/01 05:09:30;;;;;;;;;;;18.40;73.10;;;;;;5074933;28;20306;-31
2023/07/01 05:11:55;;;;;;;;;;;18.40;73.30;;;;;;5074841;28;19915;-30
2023/07/01 05:14:21;;;;;;;;;;;18.40;73.50;;;;;;5074820;28;19908;-36
2023/07/01 05:16:46;;;;;;;;;;;18.30;73.60;;;;;;5074725;28;20316;-32
2023/07/01 05:19:12;;;;;;;;;;;18.30;73.70;;;;;;5074905;28;19986;-30
2023/07/01 05:21:46;;;;;;;;;;;18.30;74.00;;;;;;5074668;28;19913;-35
2023/07/01 05:24:11;;;;;;;;;;;18.30;74.40;;;;;;5074665;28;19909;-30
2023/07/01 05:26:37;;;;;;;;;;;18.20;74.60;;;;;;5074539;28;19920;-31
2023/07/01 05:29:02;;;;;;;;;;;18.20;75.00;;;;;;5074465;28;19917;-30
2023/07/01 05:31:27;;;;;;;;;;;18.20;75.10;;;;;;5074507;28;19923;-31
2023/07/01 05:33:55;;;;;;;;;;;18.20;75.10;;;;;;5073588;28;20779;-31
2023/07/01 05:36:21;;;;;;;;;;;18.20;75.70;;;;;;5074432;28;20320;-30
2023/07/01 05:38:46;;;;;;;;;;;18.10;75.70;;;;;;5074484;28;19915;-38
2023/07/01 05:41:12;;;;;;;;;;;18.20;75.80;;;;;;5074410;28;20332;-30
2023/07/01 05:43:37;;;;;;;;;;;18.10;76.20;;;;;;5074546;28;19913;-33
2023/07/01 05:46:02;;;;;;;;;;;18.10;77.10;;;;;;5074326;28;19909;-29
2023/07/01 05:48:28;;;;;;;;;;;18.10;77.40;;;;;;5074333;28;19916;-30
2023/07/01 05:50:53;;;;;;;;;;;18.10;76.80;;;;;;5074267;28;19917;-32
2023/07/01 05:53:19;;;;;;;;;;;18.10;77.30;;;;;;5074079;28;20011;-33
2023/07/01 05:55:44;;;;;;;;;;;18.10;77.10;;;;;;5074111;28;19908;-34
2023/07/01 05:58:10;;;;;;;;;;;18.10;77.60;;;;;;5055961;28;19935;-31
2023/07/01 06:00:35;;;;;;;;;;;18.10;77.50;;;;;;5074030;28;19967;-33
2023/07/01 06:03:01;;;;;;;;;;;18.10;77.60;;;;;;5073862;28;19998;-30
2023/07/01 06:05:26;;;;;;;;;;;18.10;77.20;;;;;;5055681;28;19934;-30
2023/07/01 06:07:51;;;;;;;;;;;18.20;77.00;;;;;;5073736;28;19909;-31
2023/07/01 06:10:17;;;;;;;;;;;18.10;77.10;;;;;;5073665;28;19998;-32
2023/07/01 06:12:43;;;;;;;;;;;18.20;77.30;;;;;;5073825;28;19912;-32
2023/07/01 06:15:08;;;;;;;;;;;18.20;77.10;;;;;;5073565;28;19908;-33
2023/07/01 06:17:34;;;;;;;;;;;18.20;76.90;;;;;;5055397;28;19913;-30
2023/07/01 06:19:59;;;;;;;;;;;18.30;77.00;;;;;;5073395;28;19916;-30
2023/07/01 06:22:25;;;;;;;;;;;18.30;77.20;;;;;;5073544;28;20021;-29
2023/07/01 06:24:50;;;;;;;;;;;18.30;77.20;;;;;;5073717;28;19954;-33
2023/07/01 06:27:16;;;;;;;;;;;18.30;77.00;;;;;;5073059;28;19955;-29
2023/07/01 06:29:41;;;;;;;;;;;18.30;77.20;;;;;;5073536;28;19920;-33
2023/07/01 06:32:07;;;;;;;;;;;18.30;77.20;;;;;;5072644;28;19919;-30
2023/07/01 06:34:32;;;;;;;;;;;18.40;77.40;;;;;;5073155;28;19928;-33
2023/07/01 06:36:58;;;;;;;;;;;18.40;78.00;;;;;;5072864;28;19940;-33
2023/07/01 06:39:23;;;;;;;;;;;18.40;77.50;;;;;;5072980;28;19959;-31
2023/07/01 06:41:49;;;;;;;;;;;18.50;77.40;;;;;;5073081;28;19947;-32
2023/07/01 06:44:14;;;;;;;;;;;18.50;77.30;;;;;;5072929;28;19922;-33
2023/07/01 06:46:40;;;;;;;;;;;18.50;77.20;;;;;;5072878;28;19912;-34
2023/07/01 06:49:05;;;;;;;;;;;18.60;77.40;;;;;;5072863;28;19967;-30
2023/07/01 06:51:31;;;;;;;;;;;18.50;77.50;;;;;;5072995;28;19919;-40
2023/07/01 06:53:56;;;;;;;;;;;18.50;77.40;;;;;;5054830;28;19912;-44
2023/07/01 06:56:22;;;;;;;;;;;18.60;77.40;;;;;;5072779;28;19917;-30
2023/07/01 06:58:47;;;;;;;;;;;18.60;77.60;;;;;;5054716;28;19917;-32
2023/07/01 07:01:13;;;;;;;;;;;18.50;77.90;;;;;;5072449;28;20007;-31
2023/07/01 07:03:39;;;;;;;;;;;18.50;77.90;;;;;;5072458;28;19912;-31
2023/07/01 07:06:06;;;;;;;;;;;18.50;77.90;;;;;;5072569;28;19948;-32
2023/07/01 07:08:31;;;;;;;;;;;18.60;77.80;;;;;;5072656;28;19913;-33
2023/07/01 07:10:57;;;;;;;;;;;18.60;77.90;;;;;;5072379;28;20281;-35
2023/07/01 07:13:23;;;;;;;;;;;18.60;78.60;;;;;;5072420;28;19977;-32
2023/07/01 07:15:48;;;;;;;;;;;18.70;78.50;;;;;;5072377;28;19919;-33
2023/07/01 07:18:14;;;;;;;;;;;18.70;78.60;;;;;;5072295;28;20300;-36
2023/07/01 07:20:39;;;;;;;;;;;18.70;78.40;;;;;;5072409;28;19957;-31
2023/07/01 07:23:06;;;;;;;;;;;18.70;79.30;;;;;;5072122;28;19962;-33
2023/07/01 07:25:32;;;;;;;;;;;18.60;78.60;;;;;;5072206;28;20502;-33
2023/07/01 07:27:57;;;;;;;;;;;18.60;79.10;;;;;;5071993;28;20001;-30
2023/07/01 07:30:23;;;;;;;;;;;18.50;79.10;;;;;;5072043;28;19916;-37
2023/07/01 07:32:48;;;;;;;;;;;18.50;79.10;;;;;;5072079;28;20359;-36
2023/07/01 07:35:14;;;;;;;;;;;18.50;79.30;;;;;;5072149;28;19912;-45
2023/07/01 07:37:39;;;;;;;;;;;18.50;79.30;;;;;;5072039;28;19964;-44
2023/07/01 07:40:07;;;;;;;;;;;18.60;79.30;;;;;;5071928;28;20253;-45
2023/07/01 07:42:33;;;;;;;;;;;18.60;79.50;;;;;;5072245;28;20322;-45
2023/07/01 07:44:58;;;;;;;;;;;18.60;79.10;;;;;;5071563;28;19912;-44
2023/07/01 07:47:24;;;;;;;;;;;18.70;79.00;;;;;;5053858;28;19919;-44
2023/07/01 07:49:49;;;;;;;;;;;18.60;79.30;;;;;;5072249;28;20301;-45
2023/07/01 07:52:14;;;;;;;;;;;18.70;79.60;;;;;;5072127;28;19913;-46
2023/07/01 07:54:41;;;;;;;;;;;18.60;79.70;;;;;;5071909;28;20160;-44
2023/07/01 07:57:06;;;;;;;;;;;18.60;79.60;;;;;;5071808;28;19942;-46
2023/07/01 07:59:32;;;;;;;;;;;18.60;79.90;;;;;;5071730;28;20257;-44
2023/07/01 08:01:58;;;;;;;;;;;18.60;79.90;;;;;;5071619;28;19916;-45
2023/07/01 08:04:26;;;;;;;;;;;18.60;80.20;;;;;;5071623;28;19982;-44
2023/07/01 08:06:55;;;;;;;;;;;18.60;80.00;;;;;;5071762;28;19974;-27
2023/07/01 08:09:20;;;;;;;;;;;18.60;80.20;;;;;;5071638;28;19984;-29
2023/07/01 08:11:46;;;;;;;;;;;18.60;80.30;;;;;;5071499;28;19944;-27
2023/07/01 08:14:11;;;;;;;;;;;18.60;80.10;;;;;;5071604;28;19935;-28
2023/07/01 08:16:37;;;;;;;;;;;18.60;80.40;;;;;;5071604;28;20040;-30
2023/07/01 08:19:03;;;;;;;;;;;18.60;80.10;;;;;;5071648;28;20292;-28
2023/07/01 08:21:28;;;;;;;;;;;18.70;80.00;;;;;;5071582;28;19923;-26
2023/07/01 08:23:54;;;;;;;;;;;18.60;80.20;;;;;;5071613;28;19919;-30
2023/07/01 08:26:19;;;;;;;;;;;18.70;80.10;;;;;;5053597;28;19919;-34
2023/07/01 08:28:45;;;;;;;;;;;18.70;80.20;;;;;;5071522;28;19943;-27
2023/07/01 08:31:10;;;;;;;;;;;18.70;80.20;;;;;;5071476;28;20347;-27
2023/07/01 08:33:36;;;;;;;;;;;18.70;79.90;;;;;;5071536;28;19912;-29
2023/07/01 08:36:02;;;;;;;;;;;18.70;80.00;;;;;;5071339;28;20397;-33
2023/07/01 08:38:30;;;;;;;;;;;18.80;79.90;;;;;;5071491;28;20058;-33
2023/07/01 08:41:00;;;;;;;;;;;18.90;79.80;;;;;;5071566;28;19920;-28
2023/07/01 08:43:28;;;;;;;;;;;18.90;79.70;;;;;;5071340;28;19913;-32
2023/07/01 08:45:56;;;;;;;;;;;18.90;80.10;;;;;;5053546;28;19912;-30
2023/07/01 08:48:22;;;;;;;;;;;19.00;80.20;;;;;;5071344;28;19913;-32
2023/07/01 08:50:52;;;;;;;;;;;18.90;80.20;;;;;;5071673;28;19931;-32
2023/07/01 08:53:19;;;;;;;;;;;19.00;80.00;;;;;;5071445;28;19912;-32
2023/07/01 08:55:45;;;;;;;;;;;19.00;80.30;;;;;;5073956;28;19912;-32
2023/07/01 08:58:12;;;;;;;;;;;19.00;80.40;;;;;;5075008;28;19917;-30
2023/07/01 09:00:39;;;;;;;;;;;19.00;80.10;;;;;;5074955;28;19965;-33
2023/07/01 09:03:04;;;;;;;;;;;19.00;80.00;;;;;;5074789;28;19912;-30
2023/07/01 09:05:30;;;;;;;;;;;19.10;80.20;;;;;;5074830;28;20276;-31
2023/07/01 09:07:55;;;;;;;;;;;19.20;80.50;;;;;;5074836;28;19913;-29
2023/07/01 09:10:21;;;;;;;;;;;19.20;80.30;;;;;;5075013;28;19912;-30
2023/07/01 09:12:46;;;;;;;;;;;19.20;80.90;;;;;;5074778;28;20012;-30
2023/07/01 09:15:12;;;;;;;;;;;19.20;80.40;;;;;;5074612;28;19962;-32
2023/07/01 09:17:39;;;;;;;;;;;19.20;80.30;;;;;;5074525;28;19973;-34
2023/07/01 09:20:11;;;;;;;;;;;19.30;80.50;;;;;;5074782;28;19962;-31
2023/07/01 09:22:38;;;;;;;;;;;19.20;80.70;;;;;;5074523;28;19916;-31
2023/07/01 09:25:04;;;;;;;;;;;19.20;81.00;;;;;;5074445;28;19935;-34
2023/07/01 09:27:40;;;;;;;;;;;19.20;81.10;;;;;;5074370;28;20366;-31
2023/07/01 09:30:21;;;;;;;;;;;19.20;81.20;;;;;;5074231;28;19912;-31
2023/07/01 09:32:47;;;;;;;;;;;19.20;81.20;;;;;;5074384;28;19920;-30
2023/07/01 09:35:13;;;;;;;;;;;19.20;81.50;;;;;;5074193;28;19912;-28
2023/07/01 09:37:38;;;;;;;;;;;19.20;81.60;;;;;;5074291;28;19939;-29
2023/07/01 09:40:21;;;;;;;;;;;19.20;81.70;;;;;;5073847;28;19913;-25
2023/07/01 09:42:50;;;;;;;;;;;19.20;81.50;;;;;;5056266;28;19952;-26
2023/07/01 09:45:16;;;;;;;;;;;19.10;81.50;;;;;;5073848;28;19942;-25
2023/07/01 09:47:41;;;;;;;;;;;19.20;81.60;;;;;;5073870;28;20395;-25
2023/07/01 09:50:07;;;;;;;;;;;19.20;81.60;;;;;;5055888;28;19924;-38
2023/07/01 09:52:34;;;;;;;;;;;19.10;81.70;;;;;;5073851;28;19913;-41
2023/07/01 09:55:03;;;;;;;;;;;19.10;81.70;;;;;;5073673;28;19937;-37
2023/07/01 09:57:29;;;;;;;;;;;19.10;81.70;;;;;;5073627;28;19921;-38
2023/07/01 09:59:55;;;;;;;;;;;19.10;81.80;;;;;;5073856;28;19912;-39
2023/07/01 10:02:21;;;;;;;;;;;19.10;81.80;;;;;;5073530;28;19919;-37
2023/07/01 10:04:47;;;;;;;;;;;19.20;81.90;;;;;;5073496;28;20018;-29
2023/07/01 10:07:12;;;;;;;;;;;19.20;82.00;;;;;;5072468;28;19913;-24
2023/07/01 10:09:44;;;;;;;;;;;19.20;82.00;;;;;;5073426;28;20297;-26
2023/07/01 10:12:11;;;;;;;;;;;19.20;81.90;;;;;;5073583;28;19913;-25
2023/07/01 10:14:36;;;;;;;;;;;19.30;81.80;;;;;;5073452;28;19959;-26
2023/07/01 10:17:03;;;;;;;;;;;19.30;82.20;;;;;;5073161;28;20001;-25
2023/07/01 10:19:29;;;;;;;;;;;19.20;82.00;;;;;;5073265;28;19931;-26
2023/07/01 10:22:13;;;;;;;;;;;19.20;82.20;;;;;;5073362;28;20603;-29
2023/07/01 10:24:39;;;;;;;;;;;19.20;82.30;;;;;;5073139;28;20005;-25
2023/07/01 10:27:05;;;;;;;;;;;19.20;82.20;;;;;;5072991;28;20295;-27
2023/07/01 10:29:31;;;;;;;;;;;19.20;82.40;;;;;;5073113;28;19940;-26
2023/07/01 10:32:20;;;;;;;;;;;19.30;82.30;;;;;;5073004;28;19912;-28
2023/07/01 10:35:02;;;;;;;;;;;19.40;82.30;;;;;;5064534;28;19927;-26
2023/07/01 10:37:29;;;;;;;;;;;19.40;82.20;;;;;;5072793;28;19920;-35
2023/07/01 10:39:55;;;;;;;;;;;19.40;82.00;;;;;;5072705;28;19955;-37
2023/07/01 10:42:31;;;;;;;;;;;19.40;82.10;;;;;;5072782;28;19913;-33
2023/07/01 10:45:11;;;;;;;;;;;19.50;82.10;;;;;;5072837;28;19912;-32
2023/07/01 10:47:37;;;;;;;;;;;19.40;82.20;;;;;;5072829;28;19920;-32
2023/07/01 10:50:04;;;;;;;;;;;19.40;83.00;;;;;;5072791;28;19912;-33
2023/07/01 10:52:30;;;;;;;;;;;19.50;82.20;;;;;;5072584;28;20243;-34
2023/07/01 10:54:56;;;;;;;;;;;19.50;82.90;;;;;;5072768;28;19912;-35
2023/07/01 10:57:21;;;;;;;;;;;19.60;82.30;;;;;;5054779;28;19916;-35
2023/07/01 10:59:47;;;;;;;;;;;19.60;82.30;;;;;;5054552;28;19969;-35
2023/07/01 11:02:32;;;;;;;;;;;19.70;82.20;;;;;;5072741;28;19916;-34
2023/07/01 11:05:03;;;;;;;;;;;19.80;82.50;;;;;;5072813;28;20300;-34
2023/07/01 11:07:29;;;;;;;;;;;19.80;82.70;;;;;;5072510;28;19912;-33
2023/07/01 11:09:55;;;;;;;;;;;19.90;82.60;;;;;;5054509;28;19912;-36
2023/07/01 11:12:21;;;;;;;;;;;19.90;82.60;;;;;;5072284;28;19939;-36
2023/07/01 11:14:47;;;;;;;;;;;19.90;82.50;;;;;;5072340;28;19943;-37
2023/07/01 11:17:15;;;;;;;;;;;19.90;82.60;;;;;;5071997;28;19916;-36
2023/07/01 11:19:40;;;;;;;;;;;20.00;82.60;;;;;;5072161;28;19970;-37
2023/07/01 11:22:09;;;;;;;;;;;20.00;82.80;;;;;;5072071;28;19927;-39
2023/07/01 11:24:36;;;;;;;;;;;20.10;82.70;;;;;;5072130;28;20241;-37
2023/07/01 11:27:08;;;;;;;;;;;20.20;82.50;;;;;;5071865;28;20001;-36
2023/07/01 11:29:33;;;;;;;;;;;20.20;82.30;;;;;;5071964;28;19924;-37
2023/07/01 11:32:00;;;;;;;;;;;20.30;82.70;;;;;;5071869;28;19966;-36
2023/07/01 11:34:26;;;;;;;;;;;20.40;82.30;;;;;;5072004;28;20016;-37
2023/07/01 11:36:52;;;;;;;;;;;20.40;82.00;;;;;;5071690;28;19912;-37
2023/07/01 11:39:18;;;;;;;;;;;20.50;81.90;;;;;;5072189;28;20011;-37
2023/07/01 11:41:44;;;;;;;;;;;20.70;81.90;;;;;;5072290;28;19909;-38
2023/07/01 11:44:11;;;;;;;;;;;20.80;81.50;;;;;;5071978;28;19978;-37
2023/07/01 11:46:38;;;;;;;;;;;20.90;81.30;;;;;;5072028;28;19923;-37
2023/07/01 11:49:18;;;;;;;;;;;20.90;81.20;;;;;;5071954;28;19975;-37
2023/07/01 11:51:44;;;;;;;;;;;20.90;81.20;;;;;;5072015;28;19916;-36
2023/07/01 11:54:09;;;;;;;;;;;20.90;81.10;;;;;;5071984;28;20220;-34
2023/07/01 11:56:35;;;;;;;;;;;20.90;81.10;;;;;;5071872;28;19912;-36
2023/07/01 11:59:00;;;;;;;;;;;20.90;81.40;;;;;;5072072;28;19909;-37
2023/07/01 12:01:27;;;;;;;;;;;20.90;81.40;;;;;;5071755;28;19909;-35
2023/07/01 12:03:55;;;;;;;;;;;20.80;81.60;;;;;;5071674;28;19909;-33
2023/07/01 12:06:22;;;;;;;;;;;20.70;81.70;;;;;;5053654;28;20001;-35
2023/07/01 12:08:52;;;;;;;;;;;20.70;81.90;;;;;;5071907;28;19920;-33
2023/07/01 12:11:17;;;;;;;;;;;20.80;81.70;;;;;;5053804;28;20007;-29
2023/07/01 12:13:43;;;;;;;;;;;20.90;82.00;;;;;;5071856;28;20052;-34
2023/07/01 12:16:08;;;;;;;;;;;20.90;82.10;;;;;;5072018;28;19909;-32
2023/07/01 12:18:34;;;;;;;;;;;21.00;82.10;;;;;;5071766;28;19909;-36
2023/07/01 12:20:59;;;;;;;;;;;21.10;81.80;;;;;;5071537;28;19915;-33
2023/07/01 12:23:25;;;;;;;;;;;21.00;81.70;;;;;;5071765;28;19955;-32
2023/07/01 12:25:50;;;;;;;;;;;20.90;82.00;;;;;;5071654;28;19954;-31
2023/07/01 12:28:22;;;;;;;;;;;20.70;81.90;;;;;;5071495;28;19978;-28
2023/07/01 12:30:47;;;;;;;;;;;20.50;82.80;;;;;;5056509;28;19908;-27
2023/07/01 12:33:13;;;;;;;;;;;20.20;83.10;;;;;;5075314;28;19975;-31
2023/07/01 12:35:39;;;;;;;;;;;20.10;83.50;;;;;;5075558;28;19966;-28
2023/07/01 12:38:07;;;;;;;;;;;20.10;83.90;;;;;;5074981;28;20007;-36
2023/07/01 12:40:32;;;;;;;;;;;20.20;84.10;;;;;;5075070;28;20213;-29
2023/07/01 12:42:58;;;;;;;;;;;20.30;84.20;;;;;;5056978;28;19908;-30
2023/07/01 12:45:24;;;;;;;;;;;20.50;83.90;;;;;;5074952;28;19909;-29
2023/07/01 12:47:49;;;;;;;;;;;20.60;83.70;;;;;;5074987;28;20325;-28
2023/07/01 12:50:15;;;;;;;;;;;20.60;83.50;;;;;;5074881;28;19931;-30
2023/07/01 12:52:40;;;;;;;;;;;20.60;84.00;;;;;;5074848;28;19908;-31
2023/07/01 12:55:09;;;;;;;;;;;20.60;83.90;;;;;;5074681;28;19973;-29
2023/07/01 12:57:38;;;;;;;;;;;20.60;83.80;;;;;;5074491;28;20375;-28
2023/07/01 13:00:05;;;;;;;;;;;20.70;83.80;;;;;;5074555;28;19909;-39
2023/07/01 13:02:32;;;;;;;;;;;20.80;83.40;;;;;;5074497;28;19909;-29
2023/07/01 13:05:01;;;;;;;;;;;20.70;83.30;;;;;;5075022;28;19909;-29
2023/07/01 13:07:33;;;;;;;;;;;20.70;83.60;;;;;;5074609;28;19913;-33
2023/07/01 13:09:59;;;;;;;;;;;20.60;83.70;;;;;;5074514;28;20356;-33
2023/07/01 13:12:25;;;;;;;;;;;20.50;83.90;;;;;;5074560;28;19909;-33
2023/07/01 13:14:51;;;;;;;;;;;20.50;84.00;;;;;;5074489;28;19916;-31
2023/07/01 13:17:19;;;;;;;;;;;20.50;83.90;;;;;;5074184;28;19967;-43
2023/07/01 13:19:44;;;;;;;;;;;20.60;83.70;;;;;;5074332;28;20015;-41
2023/07/01 13:22:12;;;;;;;;;;;20.70;83.40;;;;;;5074313;28;19951;-41
2023/07/01 13:24:40;;;;;;;;;;;20.80;83.30;;;;;;5074201;28;20395;-34
2023/07/01 13:27:07;;;;;;;;;;;20.80;83.10;;;;;;5074020;28;20307;-34
2023/07/01 13:29:33;;;;;;;;;;;20.80;83.00;;;;;;5073959;28;20338;-34
2023/07/01 13:32:01;;;;;;;;;;;20.80;83.20;;;;;;5074099;28;19918;-34
2023/07/01 13:34:26;;;;;;;;;;;20.80;83.20;;;;;;5074281;28;20648;-34
2023/07/01 13:36:52;;;;;;;;;;;20.90;83.40;;;;;;5074136;28;19912;-33
2023/07/01 13:39:30;;;;;;;;;;;21.00;83.20;;;;;;5073764;28;19948;-33
2023/07/01 13:41:59;;;;;;;;;;;21.00;83.00;;;;;;5054392;28;19931;-33
2023/07/01 13:44:24;;;;;;;;;;;21.00;82.80;;;;;;5073922;28;19908;-33
2023/07/01 13:46:51;;;;;;;;;;;20.90;82.70;;;;;;5073901;28;20355;-32
2023/07/01 13:49:20;;;;;;;;;;;20.90;82.80;;;;;;5073983;28;19909;-33
2023/07/01 13:51:45;;;;;;;;;;;20.90;82.90;;;;;;5073959;28;20282;-36
2023/07/01 13:54:18;;;;;;;;;;;20.80;82.50;;;;;;5073991;28;20015;-36
2023/07/01 13:56:44;;;;;;;;;;;20.70;82.50;;;;;;5073907;28;19912;-36
2023/07/01 13:59:12;;;;;;;;;;;20.60;82.60;;;;;;5074060;28;19909;-36
2023/07/01 14:01:39;;;;;;;;;;;20.50;82.70;;;;;;5073843;28;19932;-36
2023/07/01 14:04:04;;;;;;;;;;;20.40;82.90;;;;;;5073911;28;20360;-35
2023/07/01 14:06:31;;;;;;;;;;;20.40;83.00;;;;;;5055745;28;19909;-35
2023/07/01 14:08:56;;;;;;;;;;;20.30;83.10;;;;;;5073637;28;20372;-34
2023/07/01 14:11:26;;;;;;;;;;;20.30;83.10;;;;;;5073644;28;19908;-35
2023/07/01 14:13:53;;;;;;;;;;;20.40;83.40;;;;;;5073620;28;19908;-37